AKST,Max TemperatureF,Mean TemperatureF,Min TemperatureF,Max Dew PointF,MeanDew PointF,Min DewpointF,Max Humidity, Mean Humidity, Min Humidity, Max Sea Level PressureIn, Mean Sea Level PressureIn, Min Sea Level PressureIn, Max VisibilityMiles, Mean VisibilityMiles, Min VisibilityMiles, Max Wind SpeedMPH, Mean Wind SpeedMPH, Max Gust SpeedMPH,PrecipitationIn, CloudCover, Events, WindDirDegrees
2012-12-1,-38,-42,-47,,,,,,,30.37,30.04,29.74,10,6,2,4,0,,0.00,0,Fog,80
2012-12-2,-41,-44,-49,,,,,,,30.19,29.95,29.71,10,6,2,0,0,,0.00,1,Fog,-1
2012-12-3,-34,-42,-49,,,,,,,30.26,30.19,29.84,10,6,2,0,0,,0.00,3,Fog-Snow,-1
2012-12-4,-25,-38,-50,-32,-33,-35,73,72,69,30.25,30.10,29.77,9,6,2,4,0,,0.00,5,Fog-Snow,115
2012-12-5,-23,-32,-41,-31,-31,-32,74,70,69,30.22,30.08,29.69,10,8,2,0,0,,0.00,4,Snow,-1
2012-12-6,-20,-32,-42,-28,-32,-36,74,72,69,30.31,30.28,30.22,10,8,4,0,0,,0.00,4,Fog-Snow,-1
2012-12-7,-14,-17,-20,-20,-22,-28,84,76,70,30.35,30.30,30.05,10,9,4,0,0,,0.00,8,Snow,-1
2012-12-8,-15,-24,-33,-20,-27,-34,78,74,70,30.39,30.17,29.64,10,8,1,5,1,,0.00,6,Fog-Snow,260
2012-12-9,-7,-12,-18,-12,-17,-24,79,76,70,29.85,29.72,29.47,10,7,2,6,1,,0.00,6,Snow,129
2012-12-10,0,-4,-7,-5,-8,-12,83,78,75,29.84,29.77,29.74,10,9,2,4,0,,0.00,6,Snow,210
2012-12-11,3,-1,-5,-1,-4,-8,88,83,79,30.01,29.94,29.76,10,9,4,10,1,,0.00,6,Snow,134
2012-12-12,14,10,5,11,6,0,88,84,80,29.73,29.33,29.09,10,7,1,7,3,,0.00,8,Snow,153
2012-12-13,12,3,-6,9,1,-10,92,86,78,29.49,29.34,29.16,10,9,1,7,1,,0.00,6,Snow,283
2012-12-14,8,0,-7,5,-1,-12,92,85,78,29.48,29.33,29.14,10,7,0,8,1,,0.00,8,Fog-Snow,303
2012-12-15,8,-2,-13,5,-8,-21,85,78,68,29.57,29.26,29.07,10,3,1,17,11,31,0.00,8,Snow,315
2012-12-16,-13,-21,-31,-20,-24,-35,84,77,71,29.99,29.78,29.39,10,8,3,8,4,,0.00,4,Snow,307
2012-12-17,-32,-40,-47,,,,,,,30.15,30.11,30.01,10,9,3,0,0,,0.00,1,Fog-Snow,-1
2012-12-18,-42,-46,-51,,,,,,,30.09,30.02,29.63,10,4,1,0,0,,0.00,2,Fog,-1
2012-12-19,-32,-38,-45,,,,,,,30.59,30.38,30.12,10,9,5,0,0,,0.00,4,Fog,-1
2012-12-20,-32,-38,-47,,,,,,,30.87,30.76,30.61,10,10,7,0,0,,0.00,3,Fog,-1
2012-12-21,-43,-47,-51,,,,,,,30.93,30.88,30.80,10,7,3,0,0,,0.00,1,Fog,-1
2012-12-22,-38,-46,-50,,,,,,,30.77,30.60,30.25,10,6,2,0,0,,0.00,3,Fog-Snow,-1
2012-12-23,-33,-39,-45,,,,,,,30.49,30.35,30.29,10,9,6,0,0,,0.00,3,Fog-Snow,-1
2012-12-24,-27,-37,-45,-34,-35,-36,73,72,69,30.39,30.36,30.30,10,10,6,0,0,,0.00,4,Fog,-1
2012-12-25,-20,-24,-29,-27,-31,-35,77,73,69,30.32,30.20,30.15,10,10,10,5,0,,0.00,6,,90
2012-12-26,-24,-28,-33,-31,-34,-36,77,71,69,30.18,30.12,30.03,10,10,10,4,0,,0.00,2,,50
2012-12-27,-22,-28,-33,-29,-31,-35,78,73,69,30.02,29.93,29.60,10,10,10,4,0,,0.00,4,,85
2012-12-28,-9,-14,-20,-15,-21,-27,79,75,70,30.02,29.94,29.65,10,9,2,0,0,,0.00,4,Snow,-1
2012-12-29,-6,-12,-18,-11,-16,-23,83,78,75,30.01,29.89,29.85,10,10,10,6,1,,0.00,3,,78
2012-12-30,0,-8,-15,-6,-11,-20,87,81,78,29.83,29.70,29.62,10,10,10,5,1,,0.00,4,,189
2012-12-31,-7,-12,-18,-12,-17,-24,83,79,74,30.17,30.01,29.76,10,10,10,7,2,,0.00,4,,335